Time;durP1;ratioP1;P1;durP2;ratioP2;P2;SDS_P1;SDS_P2;PMS_P1;PMS_P2;Temp;Humidity;BMP_temperature;BMP_pressure;BME280_temperature;BME280_humidity;BME280_pressure;Samples;Min_cycle;Max_cycle;Signal;HPM_P1;HPM_P2
2022/03/27 00:02:07;;;;;;;11.50;4.60;;;;;;;2.44;49.75;101674.64;104912;1285;25530;-76
2022/03/27 00:04:35;;;;;;;7.30;3.60;;;;;;;2.39;49.94;101672.33;105284;1282;26522;-77
2022/03/27 00:07:02;;;;;;;10.30;4.00;;;;;;;2.37;50.02;101673.45;105193;1282;25264;-74
2022/03/27 00:09:29;;;;;;;9.50;3.80;;;;;;;2.38;50.24;101677.14;105328;1284;24474;-74
2022/03/27 00:11:56;;;;;;;8.90;4.20;;;;;;;2.37;50.18;101679.02;105333;1282;24244;-72
2022/03/27 00:14:23;;;;;;;10.10;3.40;;;;;;;2.33;50.06;101680.23;105226;1282;25461;-72
2022/03/27 00:16:51;;;;;;;8.50;4.40;;;;;;;2.29;50.03;101686.45;105116;1284;22562;-73
2022/03/27 00:19:18;;;;;;;6.70;3.00;;;;;;;2.25;50.16;101690.79;105209;1284;24285;-74
2022/03/27 00:21:45;;;;;;;7.60;3.30;;;;;;;2.21;50.09;101688.90;105091;1284;22544;-70
2022/03/27 00:24:12;;;;;;;8.80;3.10;;;;;;;2.19;50.18;101686.72;105315;1282;22537;-72
2022/03/27 00:26:40;;;;;;;5.80;3.00;;;;;;;2.20;50.20;101686.59;105651;1281;24303;-70
2022/03/27 00:29:07;;;;;;;6.60;2.80;;;;;;;2.29;50.23;101687.70;105560;1281;22581;-71
2022/03/27 00:31:36;;;;;;;13.40;4.20;;;;;;;2.33;50.04;101686.64;105386;1281;22888;-72
2022/03/27 00:34:04;;;;;;;8.60;3.40;;;;;;;2.34;50.00;101688.80;105449;1281;25302;-74
2022/03/27 00:36:32;;;;;;;7.20;2.90;;;;;;;2.34;50.00;101682.20;106062;1274;22698;-73
2022/03/27 00:38:59;;;;;;;9.60;2.80;;;;;;;2.31;50.03;101682.58;106185;1275;22551;-74
2022/03/27 00:41:26;;;;;;;6.40;3.00;;;;;;;2.28;50.04;101683.30;106125;1276;22755;-73
2022/03/27 00:43:53;;;;;;;6.70;2.50;;;;;;;2.31;50.06;101676.49;106102;1274;24330;-77
2022/03/27 00:46:20;;;;;;;8.60;3.30;;;;;;;2.32;50.02;101679.65;105556;1281;22709;-74
2022/03/27 00:48:47;;;;;;;6.50;2.80;;;;;;;2.34;49.98;101675.26;105273;1282;22732;-76
2022/03/27 00:51:14;;;;;;;5.40;2.60;;;;;;;2.31;49.94;101678.41;105498;1281;22573;-73
2022/03/27 00:53:42;;;;;;;7.30;2.30;;;;;;;2.27;49.98;101672.11;105432;1281;25375;-72
2022/03/27 00:56:09;;;;;;;5.80;2.40;;;;;;;2.27;49.99;101673.31;105091;1281;24236;-72
2022/03/27 00:58:36;;;;;;;12.10;2.80;;;;;;;2.22;50.00;101672.80;105487;1281;25477;-71
2022/03/27 01:01:09;;;;;;;4.80;2.50;;;;;;;2.21;50.05;101681.77;105373;1281;24251;-72
2022/03/27 01:03:37;;;;;;;6.00;2.30;;;;;;;2.10;50.08;101685.77;105620;1280;28604;-70
2022/03/27 01:06:17;;;;;;;5.00;3.30;;;;;;;2.06;50.30;101684.54;106014;1274;26508;-74
2022/03/27 01:11:30;;;;;;;6.20;2.90;;;;;;;1.91;50.74;101679.19;106090;1274;25491;-70
2022/03/27 01:13:58;;;;;;;8.90;3.00;;;;;;;1.91;50.98;101679.55;105905;1275;25256;-70
2022/03/27 01:16:44;;;;;;;9.20;3.10;;;;;;;1.92;51.04;101677.67;105929;1276;22554;-70
2022/03/27 01:19:15;;;;;;;4.70;2.60;;;;;;;1.93;51.23;101681.51;105754;1278;24384;-76
2022/03/27 01:21:45;;;;;;;9.90;2.80;;;;;;;1.95;51.15;101683.73;105917;1279;22525;-69
2022/03/27 01:24:15;;;;;;;3.90;2.80;;;;;;;1.92;51.11;101684.45;105772;1278;22856;-77
2022/03/27 01:26:43;;;;;;;7.70;2.80;;;;;;;1.86;51.15;101683.13;105958;1279;26711;-74
2022/03/27 01:29:10;;;;;;;5.70;2.40;;;;;;;1.82;51.25;101679.98;105931;1279;23900;-74
2022/03/27 01:31:38;;;;;;;6.00;2.10;;;;;;;1.77;51.27;101683.73;105905;1279;23922;-74
2022/03/27 01:34:05;;;;;;;6.30;3.00;;;;;;;1.79;51.37;101683.48;105785;1278;24228;-72
2022/03/27 01:36:34;;;;;;;5.80;2.50;;;;;;;1.80;51.35;101691.36;105901;1279;25344;-71
2022/03/27 01:39:08;;;;;;;5.50;2.40;;;;;;;1.84;51.27;101685.10;106209;1273;24236;-73
2022/03/27 01:41:36;;;;;;;4.80;2.20;;;;;;;1.89;51.05;101684.27;106055;1273;22846;-74
2022/03/27 01:44:05;;;;;;;5.90;2.40;;;;;;;1.89;51.05;101686.54;105736;1278;22542;-74
2022/03/27 01:46:35;;;;;;;3.60;1.90;;;;;;;1.86;50.99;101690.23;105835;1278;24781;-72
2022/03/27 01:49:05;;;;;;;5.20;2.50;;;;;;;1.82;51.07;101689.52;105676;1278;25248;-71
2022/03/27 01:51:32;;;;;;;7.30;2.40;;;;;;;1.80;51.07;101688.38;105623;1279;22620;-75
2022/03/27 01:54:00;;;;;;;4.70;2.30;;;;;;;1.74;51.06;101688.45;105819;1279;22646;-72
2022/03/27 01:56:27;;;;;;;4.70;2.50;;;;;;;1.72;51.21;101690.30;105821;1279;24355;-71
2022/03/27 01:58:54;;;;;;;7.70;2.40;;;;;;;1.72;51.21;101698.47;105675;1279;22561;-73
2022/03/27 02:01:21;;;;;;;5.40;2.40;;;;;;;1.70;51.13;101697.48;105463;1279;24204;-71
2022/03/27 02:03:49;;;;;;;4.80;2.20;;;;;;;1.68;51.33;101702.58;106082;1273;22528;-71
2022/03/27 02:06:17;;;;;;;5.90;3.10;;;;;;;1.71;51.30;101701.84;106077;1273;24489;-71
2022/03/27 02:08:44;;;;;;;9.70;2.70;;;;;;;1.72;51.44;101708.00;105884;1274;22528;-71
2022/03/27 02:11:13;;;;;;;6.10;2.40;;;;;;;1.68;51.33;101707.98;106004;1274;24452;-75
2022/03/27 02:13:40;;;;;;;6.50;2.70;;;;;;;1.63;51.42;101711.52;105996;1273;24222;-72
2022/03/27 02:16:08;;;;;;;5.70;2.40;;;;;;;1.64;51.53;101717.00;106043;1273;22681;-71
2022/03/27 02:18:36;;;;;;;5.10;2.50;;;;;;;1.70;51.51;101720.92;105972;1274;25417;-73
2022/03/27 02:21:03;;;;;;;6.20;2.50;;;;;;;1.72;51.51;101723.79;106116;1273;25557;-75
2022/03/27 02:23:31;;;;;;;6.10;2.30;;;;;;;1.65;51.54;101723.78;106105;1273;24308;-72
2022/03/27 02:25:58;;;;;;;7.30;2.90;;;;;;;1.58;51.67;101725.23;106196;1274;22540;-75
2022/03/27 02:28:25;;;;;;;6.90;2.70;;;;;;;1.58;51.70;101726.40;106093;1273;22616;-74
2022/03/27 02:30:53;;;;;;;8.00;2.30;;;;;;;1.62;51.76;101727.84;105928;1276;25360;-73
2022/03/27 02:33:20;;;;;;;4.10;2.00;;;;;;;1.59;51.64;101732.04;105804;1276;22563;-72
2022/03/27 02:35:48;;;;;;;4.90;2.60;;;;;;;1.54;51.67;101731.10;105591;1277;22566;-72
2022/03/27 02:38:15;;;;;;;7.80;2.80;;;;;;;1.53;51.75;101724.78;105557;1277;22567;-71
2022/03/27 02:40:43;;;;;;;6.00;3.00;;;;;;;1.49;51.80;101729.46;105675;1276;25230;-72
2022/03/27 02:43:10;;;;;;;9.40;2.90;;;;;;;1.53;51.88;101730.70;105683;1276;23928;-71
2022/03/27 02:45:38;;;;;;;4.70;2.30;;;;;;;1.59;51.77;101736.34;105590;1277;24439;-71
2022/03/27 02:48:06;;;;;;;7.10;3.10;;;;;;;1.61;51.88;101742.52;105507;1277;23936;-71
2022/03/27 02:50:36;;;;;;;4.40;2.10;;;;;;;1.67;51.72;101745.42;105897;1273;22638;-72
2022/03/27 02:53:04;;;;;;;4.50;2.50;;;;;;;1.63;51.56;101748.38;106095;1274;22560;-72
2022/03/27 02:55:31;;;;;;;6.20;2.80;;;;;;;1.60;51.72;101752.06;105929;1274;23026;-74
2022/03/27 02:57:58;;;;;;;5.20;2.70;;;;;;;1.53;51.70;101762.98;105878;1274;25643;-71
2022/03/27 03:00:25;;;;;;;6.60;2.40;;;;;;;1.44;51.81;101760.14;106097;1273;24216;-71
2022/03/27 03:02:53;;;;;;;6.40;3.00;;;;;;;1.44;52.02;101756.26;106160;1273;22715;-71
2022/03/27 03:05:22;;;;;;;6.40;2.70;;;;;;;1.47;52.16;101760.08;106144;1273;23747;-74
2022/03/27 03:07:52;;;;;;;5.80;2.60;;;;;;;1.51;52.02;101763.41;106173;1273;25237;-73
2022/03/27 03:10:19;;;;;;;8.90;3.40;;;;;;;1.53;51.98;101762.30;106155;1273;22554;-72
2022/03/27 03:12:46;;;;;;;5.70;2.60;;;;;;;1.53;51.98;101764.56;105931;1274;22528;-74
2022/03/27 03:15:13;;;;;;;5.50;2.80;;;;;;;1.54;51.92;101763.73;105588;1280;22544;-74
2022/03/27 03:17:40;;;;;;;5.90;2.70;;;;;;;1.52;52.02;101766.55;105724;1279;22535;-74
2022/03/27 03:20:08;;;;;;;6.90;2.80;;;;;;;1.47;52.08;101768.60;105666;1279;22534;-73
2022/03/27 03:22:37;;;;;;;4.30;2.50;;;;;;;1.48;52.25;101768.14;105800;1279;24302;-74
2022/03/27 03:25:05;;;;;;;6.50;2.40;;;;;;;1.53;52.20;101773.22;105120;1284;22682;-73
2022/03/27 03:27:32;;;;;;;6.80;2.90;;;;;;;1.52;52.35;101775.05;105000;1285;22688;-79
2022/03/27 03:29:59;;;;;;;6.20;2.50;;;;;;;1.49;52.22;101769.55;104931;1285;22711;-70
2022/03/27 03:32:26;;;;;;;7.10;3.00;;;;;;;1.45;52.35;101766.59;105071;1285;22569;-73
2022/03/27 03:34:53;;;;;;;5.50;3.00;;;;;;;1.50;52.49;101776.40;105441;1279;25238;-73
2022/03/27 03:37:20;;;;;;;6.70;2.60;;;;;;;1.52;52.47;101779.23;105613;1279;24935;-71
2022/03/27 03:39:48;;;;;;;7.40;2.60;;;;;;;1.51;52.53;101783.02;105642;1279;22541;-70
2022/03/27 03:42:15;;;;;;;8.20;2.80;;;;;;;1.46;52.47;101790.60;105474;1281;26692;-71
2022/03/27 03:44:44;;;;;;;7.30;3.00;;;;;;;1.34;52.62;101786.70;105830;1276;25389;-72
2022/03/27 03:47:11;;;;;;;5.90;3.00;;;;;;;1.28;52.73;101792.80;105828;1278;22928;-74
2022/03/27 03:49:38;;;;;;;4.80;2.60;;;;;;;1.20;52.84;101797.95;105802;1277;24232;-73
2022/03/27 03:52:07;;;;;;;10.00;2.90;;;;;;;1.12;53.04;101800.85;105894;1276;23095;-77
2022/03/27 03:54:35;;;;;;;5.30;2.70;;;;;;;1.09;53.32;101805.38;105655;1281;23362;-79
2022/03/27 03:57:04;;;;;;;7.20;3.00;;;;;;;1.09;53.39;101806.77;105778;1279;22547;-74
2022/03/27 03:59:33;;;;;;;7.10;3.50;;;;;;;1.08;53.50;101810.33;106039;1277;24214;-73
2022/03/27 04:02:00;;;;;;;6.20;2.70;;;;;;;1.06;53.58;101817.02;105704;1280;25315;-73
2022/03/27 04:04:28;;;;;;;7.00;3.50;;;;;;;0.99;53.63;101820.14;105759;1276;25422;-74
2022/03/27 04:06:56;;;;;;;6.10;2.60;;;;;;;0.93;53.84;101818.94;105362;1282;22545;-78
2022/03/27 04:09:23;;;;;;;6.90;3.10;;;;;;;0.86;54.05;101814.56;105306;1280;22707;-74
2022/03/27 04:11:50;;;;;;;5.50;2.40;;;;;;;0.83;54.15;101814.09;105751;1279;25319;-78
2022/03/27 04:14:18;;;;;;;7.40;3.20;;;;;;;0.83;54.23;101821.54;105651;1281;24088;-74
2022/03/27 04:16:45;;;;;;;6.10;3.10;;;;;;;0.83;54.38;101821.52;105748;1279;25199;-70
2022/03/27 04:19:13;;;;;;;6.10;2.50;;;;;;;0.84;54.43;101825.20;105600;1281;22563;-72
2022/03/27 04:21:41;;;;;;;4.30;2.40;;;;;;;0.83;54.48;101825.33;105671;1278;23023;-72
2022/03/27 04:24:09;;;;;;;6.50;2.90;;;;;;;0.78;54.79;101827.84;105594;1279;25485;-72
2022/03/27 04:26:39;;;;;;;5.50;2.50;;;;;;;0.75;54.88;101829.91;106023;1274;22550;-77
2022/03/27 04:29:05;;;;;;;7.20;3.60;;;;;;;0.78;54.96;101825.77;106027;1273;24257;-70
2022/03/27 04:31:32;;;;;;;8.80;3.60;;;;;;;0.78;54.92;101832.16;106001;1274;25254;-72
2022/03/27 04:33:59;;;;;;;6.90;2.50;;;;;;;0.77;55.13;101831.61;105934;1274;25249;-71
2022/03/27 04:36:26;;;;;;;9.10;3.30;;;;;;;0.69;55.16;101833.08;105923;1274;24275;-74
2022/03/27 04:38:55;;;;;;;5.50;2.60;;;;;;;0.66;55.47;101837.27;106119;1274;24101;-73
2022/03/27 04:41:22;;;;;;;8.40;3.70;;;;;;;0.72;55.38;101836.73;105996;1273;24441;-70
2022/03/27 04:43:49;;;;;;;8.20;3.30;;;;;;;0.76;55.51;101835.88;106106;1273;25631;-74
2022/03/27 04:46:17;;;;;;;5.60;2.90;;;;;;;0.80;55.53;101840.45;106197;1274;24222;-76
2022/03/27 04:48:45;;;;;;;5.70;2.90;;;;;;;0.81;55.51;101850.20;106168;1274;22550;-73
2022/03/27 04:51:12;;;;;;;5.90;2.50;;;;;;;0.78;55.57;101851.41;106270;1274;25412;-73
2022/03/27 04:53:40;;;;;;;5.30;2.30;;;;;;;0.78;55.58;101854.00;106175;1274;24222;-84
2022/03/27 04:56:07;;;;;;;7.30;3.50;;;;;;;0.71;55.71;101858.52;105798;1278;24258;-80
2022/03/27 04:58:35;;;;;;;9.60;3.80;;;;;;;0.72;55.86;101865.52;106740;1277;22545;-82
2022/03/27 05:01:03;;;;;;;5.90;2.60;;;;;;;0.73;55.97;101858.98;106124;1277;22652;-79
2022/03/27 05:03:31;;;;;;;10.40;3.20;;;;;;;0.69;56.10;101861.17;105999;1278;25292;-80
2022/03/27 05:05:59;;;;;;;6.50;2.70;;;;;;;0.70;56.27;101866.30;106024;1278;25482;-79
2022/03/27 05:08:27;;;;;;;4.80;2.70;;;;;;;0.69;56.46;101865.91;106053;1278;25374;-79
2022/03/27 05:10:54;;;;;;;5.00;2.70;;;;;;;0.73;56.48;101867.81;106197;1277;25255;-78
2022/03/27 05:13:21;;;;;;;6.50;2.70;;;;;;;0.72;56.39;101867.59;106172;1277;22557;-78
2022/03/27 05:15:48;;;;;;;4.50;2.40;;;;;;;0.78;56.56;101868.75;106467;1273;23975;-81
2022/03/27 05:18:17;;;;;;;5.50;2.20;;;;;;;0.81;56.70;101882.11;106386;1274;22617;-81
2022/03/27 05:20:45;;;;;;;6.20;2.80;;;;;;;0.75;56.92;101881.11;106655;1274;24378;-80
2022/03/27 05:23:12;;;;;;;6.10;2.80;;;;;;;0.75;57.03;101890.98;106560;1277;22556;-79
2022/03/27 05:25:42;;;;;;;6.20;2.40;;;;;;;0.81;57.20;101897.91;107783;1280;22482;-79
2022/03/27 05:28:10;;;;;;;6.40;2.80;;;;;;;0.80;57.33;101900.09;107176;1276;22537;-80
2022/03/27 05:30:38;;;;;;;5.10;2.30;;;;;;;0.77;57.65;101899.60;106613;1277;22637;-79
2022/03/27 05:33:06;;;;;;;6.40;2.90;;;;;;;0.78;57.63;101905.73;106828;1281;25367;-76
2022/03/27 05:35:32;;;;;;;8.30;2.80;;;;;;;0.88;57.72;101904.89;105952;1278;25364;-80
2022/03/27 05:38:03;;;;;;;7.60;2.50;;;;;;;0.94;57.69;101905.89;105840;1278;22553;-79
2022/03/27 05:40:30;;;;;;;8.00;2.60;;;;;;;0.98;57.68;101906.81;105806;1278;22547;-79
2022/03/27 05:42:57;;;;;;;4.30;2.10;;;;;;;0.99;57.74;101897.64;106264;1274;25529;-81
2022/03/27 05:45:25;;;;;;;3.70;2.20;;;;;;;1.03;57.97;101901.53;106084;1275;26548;-79
2022/03/27 05:47:54;;;;;;;5.50;2.40;;;;;;;1.05;58.00;101898.66;106265;1274;23997;-75
2022/03/27 05:50:22;;;;;;;5.90;2.60;;;;;;;1.10;58.00;101904.86;106075;1274;22577;-82
2022/03/27 05:52:51;;;;;;;10.10;2.80;;;;;;;1.10;57.99;101910.25;105975;1277;22738;-79
2022/03/27 05:55:19;;;;;;;3.70;2.20;;;;;;;1.20;58.00;101916.50;105696;1278;22737;-77
2022/03/27 05:57:48;;;;;;;7.40;2.10;;;;;;;1.33;57.82;101922.89;105296;1283;22598;-80
2022/03/27 06:00:20;;;;;;;11.30;2.80;;;;;;;1.46;57.56;101925.34;105073;1284;24271;-78
2022/03/27 06:02:49;;;;;;;5.50;2.70;;;;;;;1.59;57.26;101921.15;105299;1286;23135;-75
2022/03/27 06:05:22;;;;;;;3.80;2.90;;;;;;;1.64;57.04;101919.48;105135;1284;22557;-78
2022/03/27 06:07:57;;;;;;;5.70;1.80;;;;;;;1.69;56.86;101923.73;105544;1284;24827;-75
2022/03/27 06:10:27;;;;;;;4.40;2.00;;;;;;;1.74;56.84;101926.59;105151;1284;25493;-79
2022/03/27 06:12:54;;;;;;;5.30;3.60;;;;;;;1.83;56.67;101928.06;105201;1283;22911;-77
2022/03/27 06:15:21;;;;;;;5.70;1.60;;;;;;;1.90;56.38;101932.62;105593;1274;22541;-78
2022/03/27 06:17:51;;;;;;;5.40;1.80;;;;;;;1.92;56.01;101939.48;106050;1277;23034;-77
2022/03/27 06:20:23;;;;;;;11.10;2.30;;;;;;;1.97;55.65;101940.12;106031;1274;22543;-80
2022/03/27 06:22:52;;;;;;;5.10;1.90;;;;;;;2.01;55.37;101942.56;105993;1274;22535;-79
2022/03/27 06:25:21;;;;;;;5.40;2.40;;;;;;;2.07;55.31;101946.66;105794;1278;22556;-77
2022/03/27 06:27:49;;;;;;;5.30;1.90;;;;;;;2.16;55.25;101954.59;105814;1277;23582;-85
2022/03/27 06:30:18;;;;;;;6.40;2.20;;;;;;;2.21;54.97;101948.43;105693;1277;24282;-79
2022/03/27 06:32:46;;;;;;;4.90;1.90;;;;;;;2.22;54.46;101949.90;105094;1284;25273;-77
2022/03/27 06:35:15;;;;;;;3.60;1.70;;;;;;;2.28;54.14;101959.88;105100;1284;22583;-77
2022/03/27 06:37:43;;;;;;;5.60;1.60;;;;;;;2.29;53.89;101958.02;105342;1287;22607;-78
2022/03/27 06:40:13;;;;;;;3.80;1.80;;;;;;;2.38;53.83;101962.98;105673;1285;22577;-84
2022/03/27 06:42:42;;;;;;;3.50;1.80;;;;;;;2.47;53.20;101959.94;105423;1285;22610;-81
2022/03/27 06:45:11;;;;;;;1.80;1.00;;;;;;;2.54;53.29;101965.55;105892;1281;22702;-81
2022/03/27 06:47:38;;;;;;;2.60;1.40;;;;;;;2.55;52.51;101961.21;105616;1281;24376;-82
2022/03/27 06:50:07;;;;;;;4.70;1.70;;;;;;;2.54;52.53;101952.98;105729;1281;23328;-82
2022/03/27 06:52:36;;;;;;;4.90;1.60;;;;;;;2.57;52.45;101961.29;106837;1274;22820;-82
2022/03/27 06:55:09;;;;;;;6.80;2.90;;;;;;;2.65;52.19;101960.67;106500;1274;24306;-81
2022/03/27 06:57:37;;;;;;;4.00;1.40;;;;;;;2.74;51.80;101969.27;105849;1281;22564;-82
2022/03/27 07:03:03;;;;;;;3.60;1.60;;;;;;;2.90;51.43;101970.39;105763;1277;22548;-80
2022/03/27 07:05:42;;;;;;;4.10;1.70;;;;;;;2.94;51.08;101973.71;105660;1278;24406;-82
2022/03/27 07:08:11;;;;;;;5.20;1.90;;;;;;;3.06;50.98;101987.64;105647;1277;23097;-84
2022/03/27 07:10:41;;;;;;;3.50;1.60;;;;;;;3.12;50.60;101974.89;105755;1280;22761;-84
2022/03/27 07:13:10;;;;;;;3.70;1.50;;;;;;;3.30;50.24;101979.17;105885;1278;26514;-81
2022/03/27 07:15:38;;;;;;;7.40;2.40;;;;;;;3.40;49.67;101985.71;105957;1275;22718;-79
2022/03/27 07:18:06;;;;;;;3.80;1.70;;;;;;;3.47;49.44;101980.33;106309;1273;23912;-78
2022/03/27 07:20:40;;;;;;;3.00;1.60;;;;;;;3.49;48.75;101986.65;106256;1274;22535;-78
2022/03/27 07:23:10;;;;;;;4.80;2.20;;;;;;;3.53;48.80;101981.27;106306;1273;25395;-81
2022/03/27 07:25:41;;;;;;;4.00;2.00;;;;;;;3.56;48.32;101980.89;106127;1274;22546;-81
2022/03/27 07:28:10;;;;;;;4.00;1.30;;;;;;;3.63;48.21;101986.23;106390;1274;22525;-86
2022/03/27 07:30:40;;;;;;;4.80;1.70;;;;;;;3.69;47.93;101992.45;106164;1274;22551;-81
2022/03/27 07:33:08;;;;;;;4.60;1.50;;;;;;;3.76;47.36;101990.63;106248;1274;24074;-82
2022/03/27 07:35:35;;;;;;;3.60;1.60;;;;;;;3.88;47.16;101992.27;106209;1274;22554;-78
2022/03/27 07:38:03;;;;;;;2.20;1.50;;;;;;;3.99;46.38;101995.48;106136;1274;25267;-79
2022/03/27 07:40:31;;;;;;;4.50;1.50;;;;;;;4.05;45.57;101991.73;106132;1274;22476;-80
2022/03/27 07:42:58;;;;;;;2.50;1.40;;;;;;;4.16;44.82;101994.16;106163;1274;22624;-79
2022/03/27 07:45:28;;;;;;;3.00;1.80;;;;;;;4.30;43.68;101991.06;105995;1274;22574;-82
2022/03/27 07:47:56;;;;;;;1.90;1.30;;;;;;;4.39;42.32;101991.80;105730;1278;22559;-86
2022/03/27 07:50:26;;;;;;;1.60;1.10;;;;;;;4.45;41.67;101993.27;105598;1278;22762;-80
2022/03/27 07:52:53;;;;;;;2.10;1.60;;;;;;;4.54;40.90;101995.72;105535;1278;26499;-76
2022/03/27 07:55:22;;;;;;;4.00;1.40;;;;;;;4.61;40.46;101996.19;105611;1278;24330;-80
2022/03/27 07:57:55;;;;;;;2.70;1.40;;;;;;;4.66;40.22;101996.06;105637;1277;25475;-77
2022/03/27 08:00:23;;;;;;;3.00;1.40;;;;;;;4.82;39.48;101996.66;105368;1281;23234;-75
2022/03/27 08:02:51;;;;;;;2.40;1.00;;;;;;;4.87;38.71;101993.92;105520;1278;25205;-76
2022/03/27 08:05:21;;;;;;;2.40;0.90;;;;;;;4.89;37.06;101993.09;105720;1274;24222;-79
2022/03/27 08:07:48;;;;;;;3.60;1.30;;;;;;;4.86;36.72;101982.52;106000;1274;24428;-76
2022/03/27 08:10:15;;;;;;;3.20;0.90;;;;;;;4.89;36.71;101982.14;106136;1274;22735;-78
2022/03/27 08:12:43;;;;;;;1.20;0.80;;;;;;;4.99;36.04;101977.63;106022;1274;24444;-79
2022/03/27 08:15:10;;;;;;;4.00;1.10;;;;;;;5.06;35.19;101968.48;105983;1276;24062;-76
2022/03/27 08:17:37;;;;;;;1.50;1.10;;;;;;;5.14;35.15;101965.48;105912;1278;24328;-78
2022/03/27 08:20:05;;;;;;;1.50;1.30;;;;;;;5.28;35.26;101966.85;106053;1274;22557;-79
2022/03/27 08:22:33;;;;;;;3.20;1.30;;;;;;;5.42;35.47;101971.92;106196;1274;22629;-78
2022/03/27 08:25:01;;;;;;;2.70;0.90;;;;;;;5.59;35.29;101971.84;105747;1281;23164;-82
2022/03/27 08:27:32;;;;;;;3.20;1.70;;;;;;;5.74;34.95;101972.73;105323;1281;537072;-74
2022/03/27 08:29:59;;;;;;;1.90;0.90;;;;;;;5.91;34.50;101977.19;105789;1279;22550;-84
2022/03/27 08:32:27;;;;;;;2.90;1.10;;;;;;;6.03;34.46;101981.63;105903;1279;25631;-74
2022/03/27 08:34:54;;;;;;;3.10;1.00;;;;;;;6.18;33.96;101986.35;106553;1279;25322;-73
2022/03/27 08:37:21;;;;;;;1.90;1.20;;;;;;;6.31;33.83;101986.64;106364;1279;26634;-74
2022/03/27 08:39:48;;;;;;;2.30;1.10;;;;;;;6.47;33.50;101992.08;106190;1284;22509;-74
2022/03/27 08:42:19;;;;;;;2.60;1.40;;;;;;;6.54;32.35;101991.25;106077;1285;22480;-72
2022/03/27 08:44:47;;;;;;;1.80;1.20;;;;;;;6.56;32.85;101992.54;106940;1285;22583;-75
2022/03/27 08:47:24;;;;;;;3.40;1.10;;;;;;;6.70;32.37;101993.35;105440;1284;22616;-75
2022/03/27 08:50:12;;;;;;;3.30;1.10;;;;;;;6.79;32.30;101990.67;105117;1284;26690;-77
2022/03/27 08:53:00;;;;;;;1.70;1.10;;;;;;;6.88;31.78;101985.67;105168;1284;25427;-74
2022/03/27 08:55:36;;;;;;;1.40;1.10;;;;;;;6.89;31.53;101991.50;105124;1285;23961;-78
2022/03/27 08:58:03;;;;;;;2.30;0.90;;;;;;;6.91;31.59;101994.02;105377;1280;25860;-77
2022/03/27 09:00:33;;;;;;;3.80;1.00;;;;;;;6.98;32.08;101994.77;105578;1281;26702;-73
2022/03/27 09:03:03;;;;;;;2.90;1.30;;;;;;;7.09;32.49;101992.84;105714;1274;24116;-79
2022/03/27 09:05:34;;;;;;;2.60;1.00;;;;;;;7.26;32.34;101990.00;105299;1283;26519;-74
2022/03/27 09:08:07;;;;;;;2.80;1.40;;;;;;;7.44;32.18;101978.80;105114;1284;22546;-80
2022/03/27 09:10:35;;;;;;;4.30;1.00;;;;;;;7.69;32.14;101983.36;105022;1285;24319;-74
2022/03/27 09:13:02;;;;;;;1.50;0.90;;;;;;;7.85;31.25;101984.51;105056;1285;22675;-79
2022/03/27 09:15:30;;;;;;;2.10;1.10;;;;;;;7.86;30.38;101979.09;104321;1290;24329;-73
2022/03/27 09:18:08;;;;;;;2.60;1.60;;;;;;;7.99;31.22;101977.34;103852;1297;25289;-76
2022/03/27 09:20:46;;;;;;;2.50;1.10;;;;;;;8.15;30.34;101982.17;103902;1294;25371;-73
2022/03/27 09:23:27;;;;;;;1.80;0.90;;;;;;;8.25;30.48;101978.55;104032;1291;24412;-73
2022/03/27 09:25:59;;;;;;;2.00;1.20;;;;;;;8.38;30.51;101980.66;104697;1287;25437;-73
2022/03/27 09:28:47;;;;;;;3.10;1.40;;;;;;;8.47;29.66;101980.33;104780;1287;22703;-73
2022/03/27 09:31:14;;;;;;;2.40;1.20;;;;;;;8.51;30.20;101981.85;104825;1287;25837;-72
2022/03/27 09:33:46;;;;;;;3.10;1.60;;;;;;;8.76;30.37;101984.23;104914;1284;24272;-74
2022/03/27 09:36:24;;;;;;;2.70;1.30;;;;;;;8.94;30.11;101984.30;105358;1278;25473;-74
2022/03/27 09:39:13;;;;;;;1.80;1.40;;;;;;;9.15;30.16;101989.70;105177;1282;23900;-74
2022/03/27 09:41:42;;;;;;;2.60;1.30;;;;;;;9.34;29.75;101983.96;105077;1284;22627;-73
2022/03/27 09:44:18;;;;;;;2.60;1.50;;;;;;;9.42;29.62;101979.55;105242;1283;25272;-74
2022/03/27 09:46:59;;;;;;;1.90;1.40;;;;;;;9.38;28.91;101972.61;105403;1279;24687;-75
2022/03/27 09:49:32;;;;;;;3.40;1.30;;;;;;;9.39;29.37;101977.74;105747;1279;22883;-75
2022/03/27 09:52:14;;;;;;;2.90;1.50;;;;;;;9.53;28.95;101978.56;105658;1279;22698;-74
2022/03/27 09:54:51;;;;;;;3.00;1.50;;;;;;;9.65;28.54;101976.69;105572;1279;24265;-74
2022/03/27 09:57:29;;;;;;;2.00;1.30;;;;;;;9.62;28.28;101973.98;105825;1275;22553;-74
2022/03/27 09:59:58;;;;;;;1.40;1.20;;;;;;;9.68;28.51;101976.58;106031;1273;25248;-74
2022/03/27 10:02:28;;;;;;;1.50;0.90;;;;;;;9.83;28.66;101973.34;106108;1273;22792;-73
2022/03/27 10:05:26;;;;;;;2.20;1.10;;;;;;;10.05;28.55;101963.36;106063;1274;22720;-75
2022/03/27 10:07:56;;;;;;;2.30;1.20;;;;;;;10.19;27.70;101953.42;105907;1274;23741;-73
2022/03/27 10:10:26;;;;;;;2.60;1.30;;;;;;;10.07;27.52;101949.85;106100;1273;25424;-72
2022/03/27 10:12:56;;;;;;;2.60;1.20;;;;;;;9.98;27.10;101945.80;106034;1274;22588;-75
2022/03/27 10:15:29;;;;;;;4.00;1.30;;;;;;;9.99;27.41;101938.27;105904;1274;25255;-75
2022/03/27 10:18:14;;;;;;;3.20;1.30;;;;;;;10.06;27.77;101935.77;105836;1275;24913;-81
2022/03/27 10:20:46;;;;;;;2.80;1.70;;;;;;;10.29;27.60;101933.88;105880;1276;22865;-82
2022/03/27 10:23:21;;;;;;;2.30;1.30;;;;;;;10.41;27.20;101921.02;105701;1274;25402;-83
2022/03/27 10:26:07;;;;;;;2.90;1.40;;;;;;;10.41;27.10;101919.79;105837;1274;25346;-80
2022/03/27 10:28:37;;;;;;;3.80;1.20;;;;;;;10.55;27.33;101909.83;105882;1274;24241;-80
2022/03/27 10:31:06;;;;;;;4.50;2.10;;;;;;;10.84;27.52;101912.18;106075;1273;22607;-81
2022/03/27 10:33:35;;;;;;;2.20;1.50;;;;;;;11.07;27.26;101906.86;105986;1274;22549;-81
2022/03/27 10:40:16;;;;;;;2.80;1.20;;;;;;;11.75;27.12;101911.88;106089;1273;22585;-87
2022/03/27 10:43:12;;;;;;;3.10;1.40;;;;;;;12.08;26.90;101904.27;106108;1274;22535;-82
2022/03/27 10:45:39;;;;;;;2.00;1.10;;;;;;;12.10;26.00;101896.17;105844;1281;22709;-83
2022/03/27 10:48:18;;;;;;;2.40;1.10;;;;;;;12.11;26.12;101899.70;105471;1282;22522;-85
2022/03/27 10:50:54;;;;;;;3.10;1.10;;;;;;;12.11;25.81;101898.84;105638;1279;24234;-79
2022/03/27 10:53:26;;;;;;;1.80;1.30;;;;;;;12.13;25.81;101901.86;105840;1281;22565;-83
2022/03/27 10:55:56;;;;;;;2.30;1.50;;;;;;;12.07;25.87;101905.31;105762;1279;24291;-82
2022/03/27 10:58:27;;;;;;;2.30;1.10;;;;;;;12.26;26.27;101906.20;105763;1281;25667;-81
2022/03/27 11:00:55;;;;;;;1.50;1.10;;;;;;;12.43;25.87;101902.46;106046;1281;22589;-81
2022/03/27 11:04:11;;;;;;;2.60;1.30;;;;;;;12.39;25.30;101907.55;105793;1280;22532;-83
2022/03/27 11:06:42;;;;;;;4.70;1.30;;;;;;;12.23;25.13;101898.05;105536;1284;22767;-83
2022/03/27 11:09:13;;;;;;;2.10;1.20;;;;;;;12.12;25.46;101895.66;105496;1284;25662;-85
2022/03/27 11:11:40;;;;;;;7.60;1.50;;;;;;;12.28;25.54;101888.04;105414;1284;22667;-87
2022/03/27 11:14:08;;;;;;;2.60;1.20;;;;;;;12.18;24.73;101886.35;105386;1284;22570;-84
2022/03/27 11:17:16;;;;;;;2.30;1.30;;;;;;;12.12;25.65;101890.16;105592;1284;26050;-80
2022/03/27 11:19:45;;;;;;;4.30;1.20;;;;;;;12.17;25.03;101889.89;105448;1284;25377;-81
2022/03/27 11:22:37;;;;;;;5.00;2.00;;;;;;;12.18;25.44;101897.84;105876;1284;22540;-83
2022/03/27 11:25:35;;;;;;;3.10;1.60;;;;;;;12.29;25.00;101891.91;106044;1281;22629;-83
2022/03/27 11:28:16;;;;;;;5.40;1.60;;;;;;;12.27;24.98;101882.36;105889;1281;23165;-82
2022/03/27 11:30:55;;;;;;;2.40;1.30;;;;;;;12.23;25.05;101877.20;105608;1282;22729;-81
2022/03/27 11:34:15;;;;;;;2.40;1.20;;;;;;;12.42;25.54;101877.70;106019;1281;22530;-82
2022/03/27 11:36:45;;;;;;;2.30;1.20;;;;;;;12.56;24.94;101858.54;105435;1276;22537;-81
2022/03/27 11:39:33;;;;;;;3.10;1.30;;;;;;;12.73;25.25;101853.16;106493;1273;24298;-82
2022/03/27 11:42:22;;;;;;;2.40;1.20;;;;;;;13.23;25.16;101853.37;107649;1274;22652;-82
2022/03/27 11:45:17;;;;;;;5.40;1.20;;;;;;;13.73;24.73;101848.56;107868;1274;22677;-85
2022/03/27 11:47:50;;;;;;;4.50;1.30;;;;;;;13.70;23.34;101847.84;106746;1274;25977;-81
2022/03/27 11:50:32;;;;;;;3.30;1.00;;;;;;;13.42;23.90;101848.98;108111;1273;22535;-82